Hitchcock, Oklahoma
Current Conditions -  °F | °C
As of 1:15 AM on Sunday 26 Oct 2014 (Local Time) from KJWG Reporting Station
Clear Clear  
Wind Chill: 71°   Ceiling: Unl
Heat Index: 71°   Visibility: 10mi
Dew Point: 59°   Wind: 9mph
Humidity: 65%   Direction: 180°S
Pressure: 29.97"   Gusts: NA
Location:  35.97°N, 98.35°W
Report Text: KJWG 260615Z AUTO 18008KT 10SM CLR 22/15 A2997 RMK AO2 T02170148
Loading
Personal Weather Stations






























Interactive Weather Map
Tropical Storm Tracking
New forecast layout! Learn more

10-Day Weather Forecast

Advertisements
Track Severe Weather on mobile